ePrivacy and GPDR Cookie Consent by Cookie Consent
EmailTwitter


Observations de surface / Europe / LIRF (16242)

Régions: Québec | Canada | États-Unis | Europe | France | UK | Ailleurs
Station
Affichage
Infos & localisation pour LIRF (16242) | Aide pour décoder les METARs

Observations prises le 2022-06-30 à 23H20 UTC (LIRF)

Température: 19.0 Celsius

Point de rosée: 16.0 Celsius

Humidité relative: 83%

Indice Humidex 24.

Vents: Est à 9 km/h ou 5 noeuds.

Pression au niveau moyen de la mer: 101.20 kilopascals.

Observation METAR:

LIRF 302320Z 08005KT CAVOK 19/16 Q1012 NOSIG=